createdAt,value
2019-04-01T00:00:44.132Z,99.99
2019-04-01T00:01:44.115Z,99.99
2019-04-01T00:02:44.108Z,99.99
2019-04-01T00:03:44.101Z,99.99
2019-04-01T00:04:44.088Z,99.99
2019-04-01T00:05:44.079Z,99.99
2019-04-01T00:06:44.075Z,99.99
2019-04-01T00:07:44.063Z,99.99
2019-04-01T00:08:44.050Z,99.99
2019-04-01T00:09:44.041Z,99.99
2019-04-01T00:10:44.029Z,99.99
2019-04-01T00:11:44.029Z,99.99
2019-04-01T00:12:44.014Z,99.99
2019-04-01T00:13:44.007Z,99.99
2019-04-01T00:14:43.997Z,99.99
2019-04-01T00:15:43.989Z,99.99
2019-04-01T00:16:43.976Z,99.99
2019-04-01T00:17:43.967Z,99.99
2019-04-01T00:18:43.955Z,99.99
2019-04-01T00:19:43.949Z,99.99
2019-04-01T00:20:43.942Z,99.99
2019-04-01T00:21:44.633Z,99.99
2019-04-01T00:22:43.944Z,99.99
2019-04-01T00:23:43.910Z,99.99
2019-04-01T00:24:43.905Z,99.99
2019-04-01T00:25:43.893Z,99.99
2019-04-01T00:26:43.879Z,99.99
2019-04-01T00:27:43.870Z,99.99
2019-04-01T00:28:43.863Z,99.99
2019-04-01T00:29:43.851Z,99.99
2019-04-01T00:30:43.843Z,99.99
2019-04-01T00:31:43.836Z,99.99
2019-04-01T00:32:43.827Z,99.99
2019-04-01T00:33:43.813Z,99.99
2019-04-01T00:34:43.807Z,99.99
2019-04-01T00:35:43.795Z,99.99
2019-04-01T00:36:43.790Z,99.99
2019-04-01T00:37:43.777Z,99.99
2019-04-01T00:38:43.763Z,99.99
2019-04-01T00:39:43.758Z,99.99
2019-04-01T00:40:43.746Z,99.99
2019-04-01T00:41:43.735Z,99.99
2019-04-01T00:42:43.729Z,99.99
2019-04-01T00:43:43.714Z,99.99
2019-04-01T00:44:43.707Z,99.99
2019-04-01T00:45:43.702Z,99.99
2019-04-01T00:46:43.690Z,99.99
2019-04-01T00:47:43.683Z,99.99
2019-04-01T00:48:43.667Z,99.99
2019-04-01T00:49:43.657Z,99.99
2019-04-01T00:50:43.648Z,99.99
2019-04-01T00:51:43.636Z,99.99
2019-04-01T00:52:43.624Z,99.99
2019-04-01T00:53:43.613Z,99.99
2019-04-01T00:54:43.604Z,99.99
2019-04-01T00:55:43.605Z,99.99
2019-04-01T00:56:43.602Z,99.99
2019-04-01T00:57:43.574Z,99.99
2019-04-01T00:58:43.562Z,99.99
2019-04-01T00:59:43.554Z,99.99
2019-04-01T01:00:43.545Z,99.99
2019-04-01T01:01:43.532Z,99.99
2019-04-01T01:02:43.534Z,99.99
2019-04-01T01:03:43.517Z,99.99
2019-04-01T01:04:43.502Z,99.99
2019-04-01T01:05:43.500Z,99.99
2019-04-01T01:06:43.483Z,99.99
2019-04-01T01:07:43.472Z,99.99
2019-04-01T01:08:43.484Z,99.99
2019-04-01T01:09:43.454Z,99.99
2019-04-01T01:10:43.441Z,99.99
2019-04-01T01:11:43.429Z,99.99
2019-04-01T01:12:43.422Z,99.99
2019-04-01T01:13:43.411Z,99.99
2019-04-01T01:14:43.412Z,99.99
2019-04-01T01:15:43.390Z,99.99
2019-04-01T01:16:43.380Z,99.99
2019-04-01T01:17:43.373Z,99.99
2019-04-01T01:18:43.358Z,99.99
2019-04-01T01:19:43.350Z,99.99
2019-04-01T01:20:43.358Z,99.99
2019-04-01T01:21:43.327Z,99.99
2019-04-01T01:22:43.316Z,99.99
2019-04-01T01:23:43.306Z,99.99
2019-04-01T01:24:43.295Z,99.99
2019-04-01T01:25:43.284Z,99.99
2019-04-01T01:26:43.274Z,99.99
2019-04-01T01:27:43.267Z,99.99
2019-04-01T01:28:43.345Z,99.99
2019-04-01T01:29:43.243Z,99.99
2019-04-01T01:30:43.231Z,99.99
2019-04-01T01:31:43.222Z,99.99
2019-04-01T01:32:43.217Z,99.99
2019-04-01T01:33:43.204Z,99.99
2019-04-01T01:34:43.192Z,99.99
2019-04-01T01:35:43.181Z,99.99
2019-04-01T01:36:43.176Z,99.99
2019-04-01T01:37:43.161Z,99.99
2019-04-01T01:38:43.149Z,99.99
2019-04-01T01:39:43.139Z,99.99
2019-04-01T01:40:43.195Z,99.99
2019-04-01T01:41:43.133Z,99.99
2019-04-01T01:42:43.110Z,99.63
2019-04-01T01:43:43.103Z,98.87
2019-04-01T01:44:43.088Z,99.54
2019-04-01T01:45:43.077Z,99.06
2019-04-01T01:46:43.067Z,98.49
2019-04-01T01:47:43.055Z,97.92
2019-04-01T01:48:43.063Z,98.40
2019-04-01T01:49:43.045Z,97.92
2019-04-01T01:50:43.025Z,98.11
2019-04-01T01:51:43.020Z,98.87
2019-04-01T01:52:43.004Z,97.64
2019-04-01T01:53:42.992Z,98.68
2019-04-01T01:54:42.983Z,98.21
2019-04-01T01:55:42.980Z,97.92
2019-04-01T01:56:42.962Z,97.36
2019-04-01T01:57:42.953Z,98.21
2019-04-01T01:58:42.945Z,98.40
2019-04-01T01:59:42.934Z,97.64
2019-04-01T02:00:42.919Z,97.92
2019-04-01T02:01:42.911Z,97.92
2019-04-01T02:02:42.900Z,97.92
2019-04-01T02:03:42.888Z,97.83
2019-04-01T02:04:42.878Z,99.44
2019-04-01T02:05:42.865Z,99.54
2019-04-01T02:06:42.859Z,98.97
2019-04-01T02:07:42.850Z,98.49
2019-04-01T02:08:42.837Z,98.30
2019-04-01T02:09:42.826Z,97.92
2019-04-01T02:10:42.817Z,98.02
2019-04-01T02:11:42.802Z,97.74
2019-04-01T02:12:42.796Z,98.21
2019-04-01T02:13:42.783Z,98.02
2019-04-01T02:14:42.773Z,97.55
2019-04-01T02:15:42.761Z,98.02
2019-04-01T02:16:42.752Z,98.40
2019-04-01T02:17:42.738Z,98.49
2019-04-01T02:18:42.727Z,98.87
2019-04-01T02:19:42.718Z,98.30
2019-04-01T02:20:42.709Z,98.40
2019-04-01T02:21:42.698Z,98.21
2019-04-01T02:22:42.703Z,98.49
2019-04-01T02:23:42.675Z,98.87
2019-04-01T02:24:42.673Z,98.97
2019-04-01T02:25:42.662Z,98.87
2019-04-01T02:26:42.648Z,98.78
2019-04-01T02:27:42.634Z,99.06
2019-04-01T02:28:42.622Z,98.59
2019-04-01T02:29:42.610Z,99.39
2019-04-01T02:30:42.617Z,98.73
2019-04-01T02:31:42.624Z,98.54
2019-04-01T02:32:42.585Z,99.01
2019-04-01T02:33:42.573Z,99.49
2019-04-01T02:34:42.562Z,99.01
2019-04-01T02:35:42.546Z,99.58
2019-04-01T02:36:42.544Z,99.58
2019-04-01T02:37:42.527Z,99.58
2019-04-01T02:38:42.513Z,99.99
2019-04-01T02:39:42.503Z,99.99
2019-04-01T02:40:42.501Z,99.99
2019-04-01T02:41:42.484Z,99.99
2019-04-01T02:42:42.476Z,99.99
2019-04-01T02:43:42.465Z,99.99
2019-04-01T02:44:42.450Z,99.99
2019-04-01T02:45:42.436Z,99.99
2019-04-01T02:46:42.431Z,99.99
2019-04-01T02:47:42.425Z,99.99
2019-04-01T02:48:42.405Z,99.99
2019-04-01T02:49:42.398Z,99.99
2019-04-01T02:50:42.385Z,99.99
2019-04-01T02:51:42.379Z,99.99
2019-04-01T02:52:42.364Z,99.39
2019-04-01T02:53:42.354Z,99.20
2019-04-01T02:54:42.348Z,99.39
2019-04-01T02:55:42.331Z,99.68
2019-04-01T02:56:42.321Z,99.49
2019-04-01T02:57:42.307Z,99.68
2019-04-01T02:58:42.295Z,99.01
2019-04-01T02:59:42.285Z,99.77
2019-04-01T03:00:42.273Z,99.99
2019-04-01T03:01:42.270Z,99.39
2019-04-01T03:02:42.256Z,98.82
2019-04-01T03:03:42.252Z,98.73
2019-04-01T03:04:42.231Z,98.82
2019-04-01T03:05:42.218Z,98.92
2019-04-01T03:06:42.208Z,98.44
2019-04-01T03:07:42.198Z,98.63
2019-04-01T03:08:42.195Z,98.35
2019-04-01T03:09:42.181Z,98.73
2019-04-01T03:10:42.167Z,98.63
2019-04-01T03:11:42.151Z,98.63
2019-04-01T03:12:42.142Z,98.44
2019-04-01T03:13:42.137Z,98.44
2019-04-01T03:14:42.124Z,99.20
2019-04-01T03:15:42.111Z,98.92
2019-04-01T03:16:42.100Z,98.73
2019-04-01T03:17:42.088Z,98.73
2019-04-01T03:18:42.082Z,98.92
2019-04-01T03:19:42.066Z,98.82
2019-04-01T03:20:42.053Z,99.20
2019-04-01T03:21:42.045Z,99.77
2019-04-01T03:22:42.030Z,99.58
2019-04-01T03:23:42.019Z,99.99
2019-04-01T03:24:42.012Z,99.99
2019-04-01T03:25:41.998Z,99.99
2019-04-01T03:26:41.996Z,99.99
2019-04-01T03:27:41.980Z,99.99
2019-04-01T03:28:41.967Z,99.99
2019-04-01T03:29:41.952Z,99.99
2019-04-01T03:30:41.946Z,99.99
2019-04-01T03:31:41.941Z,99.99
2019-04-01T03:32:45.248Z,99.99
2019-04-01T03:33:41.923Z,99.99
2019-04-01T03:34:41.903Z,99.99
2019-04-01T03:35:41.887Z,99.99
2019-04-01T03:36:41.881Z,99.99
2019-04-01T03:37:41.888Z,99.99
2019-04-01T03:38:41.860Z,99.99
2019-04-01T03:39:41.846Z,99.99
2019-04-01T03:40:41.836Z,99.99
2019-04-01T03:41:41.825Z,99.99
2019-04-01T03:42:41.813Z,99.99
2019-04-01T03:43:41.811Z,99.99
2019-04-01T03:44:41.793Z,99.99
2019-04-01T03:45:41.782Z,99.99
2019-04-01T03:46:41.769Z,99.99
2019-04-01T03:47:41.773Z,99.99
2019-04-01T03:48:41.751Z,99.99
2019-04-01T03:49:41.738Z,99.99
2019-04-01T03:50:41.731Z,99.99
2019-04-01T03:51:41.719Z,99.99
2019-04-01T03:52:41.710Z,99.99
2019-04-01T03:53:41.697Z,99.99
2019-04-01T03:54:41.685Z,99.99
2019-04-01T03:55:41.676Z,99.99
2019-04-01T03:56:41.664Z,99.99
2019-04-01T03:57:41.654Z,99.99
2019-04-01T03:58:41.658Z,99.99
2019-04-01T03:59:41.748Z,99.99
2019-04-01T04:00:41.623Z,99.99
2019-04-01T04:01:41.612Z,99.99
2019-04-01T04:02:41.601Z,99.99
2019-04-01T04:03:41.595Z,99.99
2019-04-01T04:04:41.580Z,99.99
2019-04-01T04:05:41.566Z,99.99
2019-04-01T04:06:41.554Z,99.99
2019-04-01T04:07:41.551Z,99.99
2019-04-01T04:08:41.539Z,99.99
2019-04-01T04:09:41.527Z,99.99
2019-04-01T04:10:41.516Z,99.99
2019-04-01T04:11:41.496Z,99.99
2019-04-01T04:12:41.491Z,99.99
2019-04-01T04:13:41.483Z,99.99
2019-04-01T04:14:41.469Z,99.99
2019-04-01T04:15:41.458Z,99.99
2019-04-01T04:16:41.453Z,99.99
2019-04-01T04:17:41.435Z,99.99
2019-04-01T04:18:41.425Z,99.99
2019-04-01T04:19:41.425Z,99.99
2019-04-01T04:20:41.404Z,99.99
2019-04-01T04:21:41.389Z,99.99
2019-04-01T04:22:41.381Z,99.99
2019-04-01T04:23:41.368Z,99.99
2019-04-01T04:24:41.374Z,99.99
2019-04-01T04:25:41.353Z,99.99
2019-04-01T04:26:41.334Z,99.99
2019-04-01T04:27:41.330Z,99.99
2019-04-01T04:28:41.319Z,99.99
2019-04-01T04:29:41.308Z,99.99
2019-04-01T04:30:41.296Z,99.99
2019-04-01T04:31:41.361Z,99.99
2019-04-01T04:32:41.274Z,99.99
2019-04-01T04:33:41.258Z,99.99
2019-04-01T04:34:41.249Z,99.99
2019-04-01T04:35:41.239Z,99.99
2019-04-01T04:36:41.229Z,99.99
2019-04-01T04:37:41.215Z,99.99
2019-04-01T04:38:41.209Z,99.99
2019-04-01T04:39:41.197Z,99.99
2019-04-01T04:40:41.410Z,99.99
2019-04-01T04:41:41.217Z,99.99
2019-04-01T04:42:41.160Z,99.99
2019-04-01T04:43:41.150Z,99.99
2019-04-01T04:44:41.138Z,99.99
2019-04-01T04:45:41.125Z,99.99
2019-04-01T04:46:41.115Z,99.99
2019-04-01T04:47:41.104Z,99.99
2019-04-01T04:48:41.094Z,99.99
2019-04-01T04:49:41.081Z,99.99
2019-04-01T04:50:41.076Z,99.99
2019-04-01T04:51:41.060Z,99.99
2019-04-01T04:52:41.049Z,99.99
2019-04-01T04:53:41.034Z,99.99
2019-04-01T04:54:41.028Z,99.99
2019-04-01T04:55:41.017Z,99.99
2019-04-01T04:56:41.005Z,99.99
2019-04-01T04:57:40.994Z,99.99
2019-04-01T04:58:40.983Z,99.99
2019-04-01T04:59:40.969Z,99.99
2019-04-01T05:00:40.960Z,99.99
2019-04-01T05:01:40.950Z,99.99
2019-04-01T05:02:40.934Z,99.99
2019-04-01T05:03:40.924Z,99.99
2019-04-01T05:04:40.916Z,99.99
2019-04-01T05:05:40.907Z,99.99
2019-04-01T05:06:40.897Z,99.99
2019-04-01T05:07:40.883Z,99.99
2019-04-01T05:08:40.871Z,99.99
2019-04-01T05:09:40.858Z,99.99
2019-04-01T05:10:40.853Z,99.99
2019-04-01T05:11:40.838Z,99.99
2019-04-01T05:12:40.823Z,99.99
2019-04-01T05:13:40.837Z,99.99
2019-04-01T05:14:40.805Z,99.99
2019-04-01T05:15:40.792Z,99.99
2019-04-01T05:16:40.784Z,99.99
2019-04-01T05:17:40.768Z,99.99
2019-04-01T05:18:40.764Z,99.99
2019-04-01T05:19:40.848Z,99.99
2019-04-01T05:20:40.736Z,99.99
2019-04-01T05:21:40.720Z,99.99
2019-04-01T05:22:40.713Z,99.99
2019-04-01T05:23:40.701Z,99.99
2019-04-01T05:24:40.693Z,99.99
2019-04-01T05:25:40.680Z,99.99
2019-04-01T05:26:40.669Z,99.99
2019-04-01T05:27:40.667Z,99.99
2019-04-01T05:28:40.650Z,99.99
2019-04-01T05:29:40.634Z,99.99
2019-04-01T05:30:40.625Z,99.99
2019-04-01T05:31:40.614Z,99.99
2019-04-01T05:32:40.604Z,99.99
2019-04-01T05:33:54.606Z,99.99
2019-04-01T05:34:40.581Z,99.99
2019-04-01T05:35:40.571Z,99.99
2019-04-01T05:36:40.560Z,99.99
2019-04-01T05:37:40.549Z,99.99
2019-04-01T05:38:40.537Z,99.99
2019-04-01T05:39:40.528Z,99.99
2019-04-01T05:40:40.515Z,99.99
2019-04-01T05:41:40.502Z,99.99
2019-04-01T05:42:40.495Z,99.99
2019-04-01T05:43:40.482Z,99.99
2019-04-01T05:44:40.477Z,99.99
2019-04-01T05:45:40.459Z,99.99
2019-04-01T05:46:40.454Z,99.99
2019-04-01T05:47:40.434Z,99.99
2019-04-01T05:48:40.430Z,99.99
2019-04-01T05:49:40.415Z,99.99
2019-04-01T05:50:40.407Z,99.99
2019-04-01T05:51:40.395Z,99.99
2019-04-01T05:52:40.384Z,99.99
2019-04-01T05:53:40.371Z,99.99
2019-04-01T05:54:40.364Z,99.99
2019-04-01T05:55:40.352Z,99.99
2019-04-01T05:56:40.345Z,99.99
2019-04-01T05:57:40.334Z,99.99
2019-04-01T05:58:40.343Z,99.99
2019-04-01T05:59:40.307Z,99.99
2019-04-01T06:00:40.297Z,99.99
2019-04-01T06:01:40.289Z,99.99
2019-04-01T06:02:40.279Z,99.99
2019-04-01T06:03:40.265Z,99.99
2019-04-01T06:04:40.259Z,99.99
2019-04-01T06:05:40.255Z,99.99
2019-04-01T06:06:40.233Z,99.99
2019-04-01T06:07:40.222Z,99.99
2019-04-01T06:08:40.211Z,99.99
2019-04-01T06:09:40.223Z,99.99
2019-04-01T06:10:40.194Z,99.99
2019-04-01T06:11:40.177Z,99.99
2019-04-01T06:12:40.168Z,99.99
2019-04-01T06:13:40.164Z,99.99
2019-04-01T06:14:40.148Z,99.99
2019-04-01T06:15:40.135Z,99.99
2019-04-01T06:16:40.129Z,99.99
2019-04-01T06:17:40.111Z,99.99
2019-04-01T06:18:40.105Z,99.99
2019-04-01T06:19:40.090Z,99.99
2019-04-01T06:20:40.080Z,99.99
2019-04-01T06:21:40.073Z,99.99
2019-04-01T06:22:40.054Z,99.99
2019-04-01T06:23:40.046Z,99.99
2019-04-01T06:24:40.036Z,99.99
2019-04-01T06:25:40.025Z,99.99
2019-04-01T06:26:40.013Z,99.99
2019-04-01T06:27:40.004Z,99.99
2019-04-01T06:28:40.001Z,99.99
2019-04-01T06:29:39.977Z,99.99
2019-04-01T06:30:39.970Z,99.99
2019-04-01T06:31:39.960Z,99.99
2019-04-01T06:32:39.951Z,99.99
2019-04-01T06:33:39.936Z,99.99
2019-04-01T06:34:52.231Z,99.99
2019-04-01T06:35:39.914Z,99.99
2019-04-01T06:36:39.897Z,99.99
2019-04-01T06:37:39.910Z,99.99
2019-04-01T06:38:39.876Z,99.99
2019-04-01T06:39:39.864Z,99.99
2019-04-01T06:40:39.857Z,99.99
2019-04-01T06:41:39.839Z,99.99
2019-04-01T06:42:39.834Z,99.99
2019-04-01T06:43:39.823Z,99.99
2019-04-01T06:44:39.810Z,99.99
2019-04-01T06:45:39.797Z,99.99
2019-04-01T06:46:39.788Z,99.99
2019-04-01T06:47:39.784Z,99.99
2019-04-01T06:48:39.769Z,99.99
2019-04-01T06:49:39.753Z,99.99
2019-04-01T06:50:39.744Z,99.99
2019-04-01T06:51:39.732Z,99.99
2019-04-01T06:52:39.721Z,99.99
2019-04-01T06:53:39.712Z,99.99
2019-04-01T06:54:39.699Z,99.99
2019-04-01T06:55:39.689Z,99.99
2019-04-01T06:56:39.675Z,99.99
2019-04-01T06:57:39.664Z,99.99
2019-04-01T06:58:39.654Z,99.99
2019-04-01T06:59:39.647Z,99.99
2019-04-01T07:00:39.631Z,99.99
2019-04-01T07:01:39.622Z,99.99
2019-04-01T07:02:39.619Z,99.99
2019-04-01T07:03:39.600Z,99.99
2019-04-01T07:04:39.590Z,99.99
2019-04-01T07:05:39.577Z,99.99
2019-04-01T07:06:39.658Z,99.99
2019-04-01T07:07:39.555Z,99.99
2019-04-01T07:08:39.546Z,99.99
2019-04-01T07:09:39.533Z,98.87
2019-04-01T07:10:39.527Z,98.49
2019-04-01T07:11:39.652Z,99.35
2019-04-01T07:12:39.504Z,99.63
2019-04-01T07:13:40.190Z,98.68
2019-04-01T07:14:39.480Z,98.02
2019-04-01T07:15:39.469Z,97.92
2019-04-01T07:16:40.182Z,96.22
2019-04-01T07:17:39.448Z,94.89
2019-04-01T07:18:39.436Z,95.17
2019-04-01T07:19:39.424Z,95.27
2019-04-01T07:20:39.415Z,95.07
2019-04-01T07:21:39.410Z,95.55
2019-04-01T07:22:39.396Z,94.98
2019-04-01T07:23:39.382Z,95.07
2019-04-01T07:24:39.371Z,94.79
2019-04-01T07:25:39.359Z,92.71
2019-04-01T07:26:39.348Z,92.04
2019-04-01T07:27:39.341Z,92.23
2019-04-01T07:28:39.363Z,93.08
2019-04-01T07:29:39.320Z,92.42
2019-04-01T07:30:41.777Z,93.46
2019-04-01T07:31:39.300Z,92.71
2019-04-01T07:32:39.286Z,92.33
2019-04-01T07:33:39.280Z,91.42
2019-04-01T07:34:39.263Z,91.66
2019-04-01T07:35:39.251Z,91.52
2019-04-01T07:36:39.247Z,91.80
2019-04-01T07:37:39.244Z,92.28
2019-04-01T07:38:39.223Z,92.37
2019-04-01T07:39:39.217Z,90.57
2019-04-01T07:40:39.204Z,89.33
2019-04-01T07:41:39.343Z,87.82
2019-04-01T07:42:39.180Z,87.72
2019-04-01T07:43:39.171Z,89.05
2019-04-01T07:44:39.160Z,88.20
2019-04-01T07:45:39.150Z,87.72
2019-04-01T07:46:39.140Z,86.77
2019-04-01T07:47:39.127Z,85.72
2019-04-01T07:48:39.119Z,86.01
2019-04-01T07:49:39.211Z,88.20
2019-04-01T07:50:39.104Z,85.91
2019-04-01T07:51:39.089Z,85.53
2019-04-01T07:52:39.084Z,84.34
2019-04-01T07:53:39.075Z,84.78
2019-04-01T07:54:39.055Z,84.06
2019-04-01T07:55:39.076Z,83.68
2019-04-01T07:56:39.038Z,83.59
2019-04-01T07:57:39.035Z,83.49
2019-04-01T07:58:39.017Z,83.11
2019-04-01T07:59:39.034Z,83.11
2019-04-01T08:00:38.996Z,81.02
2019-04-01T08:01:38.985Z,80.26
2019-04-01T08:02:38.975Z,80.07
2019-04-01T08:03:41.819Z,78.83
2019-04-01T08:04:38.952Z,79.22
2019-04-01T08:05:38.946Z,78.55
2019-04-01T08:06:38.938Z,78.17
2019-04-01T08:07:38.925Z,78.45
2019-04-01T08:08:38.915Z,78.27
2019-04-01T08:09:38.908Z,78.02
2019-04-01T08:10:38.895Z,75.74
2019-04-01T08:11:38.885Z,74.79
2019-04-01T08:12:38.874Z,74.31
2019-04-01T08:13:38.866Z,72.79
2019-04-01T08:14:38.863Z,72.79
2019-04-01T08:15:38.860Z,73.18
2019-04-01T08:16:38.850Z,71.56
2019-04-01T08:17:38.833Z,70.99
2019-04-01T08:18:38.818Z,69.94
2019-04-01T08:19:38.809Z,68.93
2019-04-01T08:20:38.799Z,69.02
2019-04-01T08:21:38.790Z,68.65
2019-04-01T08:22:38.831Z,68.65
2019-04-01T08:23:38.773Z,67.60
2019-04-01T08:24:38.793Z,66.65
2019-04-01T08:25:38.753Z,66.36
2019-04-01T08:26:38.743Z,66.65
2019-04-01T08:27:38.737Z,66.55
2019-04-01T08:28:38.725Z,66.65
2019-04-01T08:29:38.717Z,66.27
2019-04-01T08:30:38.711Z,66.65
2019-04-01T08:31:38.701Z,65.70
2019-04-01T08:32:38.691Z,65.41
2019-04-01T08:33:38.675Z,65.13
2019-04-01T08:34:38.678Z,64.84
2019-04-01T08:35:38.658Z,65.03
2019-04-01T08:36:38.649Z,64.75
2019-04-01T08:37:40.536Z,64.37
2019-04-01T08:38:38.629Z,63.99
2019-04-01T08:39:38.633Z,63.89
2019-04-01T08:40:38.609Z,63.51
2019-04-01T08:41:38.603Z,63.42
2019-04-01T08:42:38.594Z,62.56
2019-04-01T08:43:38.584Z,62.65
2019-04-01T08:44:38.577Z,62.65
2019-04-01T08:45:38.567Z,63.13
2019-04-01T08:46:38.558Z,63.17
2019-04-01T08:47:38.547Z,62.85
2019-04-01T08:48:38.549Z,62.12
2019-04-01T08:49:38.531Z,62.02
2019-04-01T08:50:38.534Z,61.83
2019-04-01T08:51:38.511Z,61.83
2019-04-01T08:52:38.503Z,61.55
2019-04-01T08:53:38.494Z,61.55
2019-04-01T08:54:38.486Z,62.21
2019-04-01T08:55:38.476Z,61.93
2019-04-01T08:56:38.489Z,62.12
2019-04-01T08:57:38.461Z,61.16
2019-04-01T08:58:38.449Z,61.64
2019-04-01T08:59:38.440Z,61.55
2019-04-01T09:00:38.432Z,61.48
2019-04-01T09:01:38.422Z,61.29
2019-04-01T09:02:38.427Z,61.00
2019-04-01T09:03:38.406Z,60.05
2019-04-01T09:04:38.418Z,60.15
2019-04-01T09:05:38.405Z,60.24
2019-04-01T09:06:38.398Z,60.15
2019-04-01T09:07:38.373Z,60.24
2019-04-01T09:08:38.365Z,60.24
2019-04-01T09:09:38.354Z,60.05
2019-04-01T09:10:38.346Z,60.15
2019-04-01T09:11:38.809Z,60.24
2019-04-01T09:12:38.329Z,60.05
2019-04-01T09:13:38.316Z,60.53
2019-04-01T09:14:38.311Z,59.96
2019-04-01T09:15:38.302Z,60.05
2019-04-01T09:16:38.294Z,60.05
2019-04-01T09:17:40.320Z,60.15
2019-04-01T09:18:38.276Z,60.05
2019-04-01T09:19:38.276Z,60.05
2019-04-01T09:20:38.266Z,60.05
2019-04-01T09:21:38.252Z,60.05
2019-04-01T09:22:38.248Z,60.15
2019-04-01T09:23:38.242Z,60.24
2019-04-01T09:24:38.229Z,60.05
2019-04-01T09:25:38.226Z,60.08
2019-04-01T09:26:38.213Z,59.42
2019-04-01T09:27:38.202Z,59.70
2019-04-01T09:28:38.197Z,59.61
2019-04-01T09:29:38.187Z,59.70
2019-04-01T09:30:38.180Z,59.42
2019-04-01T09:31:38.174Z,58.65
2019-04-01T09:32:38.163Z,58.84
2019-04-01T09:33:38.154Z,58.65
2019-04-01T09:34:38.143Z,59.13
2019-04-01T09:35:40.912Z,59.51
2019-04-01T09:36:38.132Z,59.80
2019-04-01T09:37:38.133Z,59.32
2019-04-01T09:38:38.173Z,58.84
2019-04-01T09:39:38.124Z,59.13
2019-04-01T09:40:38.100Z,58.75
2019-04-01T09:41:38.090Z,58.75
2019-04-01T09:42:38.083Z,58.56
2019-04-01T09:43:38.083Z,58.56
2019-04-01T09:44:38.072Z,59.03
2019-04-01T09:45:38.056Z,58.47
2019-04-01T09:46:38.077Z,59.42
2019-04-01T09:47:38.044Z,59.13
2019-04-01T09:48:38.055Z,59.03
2019-04-01T09:49:38.027Z,59.03
2019-04-01T09:50:38.019Z,58.56
2019-04-01T09:51:48.549Z,58.28
2019-04-01T09:52:38.004Z,58.47
2019-04-01T09:53:37.996Z,58.37
2019-04-01T09:54:37.989Z,58.11
2019-04-01T09:55:37.978Z,57.99
2019-04-01T09:56:37.973Z,57.64
2019-04-01T09:57:38.023Z,58.37
2019-04-01T09:58:37.957Z,58.28
2019-04-01T09:59:37.948Z,58.21
2019-04-01T10:00:37.939Z,58.97
2019-04-01T10:01:37.933Z,59.06
2019-04-01T10:02:37.926Z,59.45
2019-04-01T10:03:37.915Z,59.45
2019-04-01T10:04:37.909Z,59.06
2019-04-01T10:05:37.903Z,59.54
2019-04-01T10:06:37.891Z,59.45
2019-04-01T10:07:37.934Z,59.45
2019-04-01T10:08:42.442Z,59.45
2019-04-01T10:09:37.871Z,59.45
2019-04-01T10:10:37.864Z,58.97
2019-04-01T10:11:37.853Z,58.40
2019-04-01T10:12:37.849Z,58.40
2019-04-01T10:13:37.841Z,59.26
2019-04-01T10:14:37.830Z,59.06
2019-04-01T10:15:37.827Z,59.16
2019-04-01T10:16:37.817Z,58.97
2019-04-01T10:17:37.822Z,59.16
2019-04-01T10:18:37.803Z,58.78
2019-04-01T10:19:37.791Z,59.35
2019-04-01T10:20:37.786Z,59.16
2019-04-01T10:21:37.778Z,58.87
2019-04-01T10:22:37.769Z,58.59
2019-04-01T10:23:37.765Z,58.78
2019-04-01T10:24:37.757Z,58.78
2019-04-01T10:25:37.747Z,58.59
2019-04-01T10:26:37.741Z,58.59
2019-04-01T10:27:37.732Z,58.69
2019-04-01T10:28:37.734Z,58.97
2019-04-01T10:29:37.717Z,58.97
2019-04-01T10:30:37.708Z,58.69
2019-04-01T10:31:37.697Z,58.87
2019-04-01T10:32:37.812Z,58.30
2019-04-01T10:33:37.687Z,58.69
2019-04-01T10:34:37.680Z,58.78
2019-04-01T10:35:37.673Z,58.59
2019-04-01T10:36:37.667Z,58.11
2019-04-01T10:37:37.659Z,57.95
2019-04-01T10:38:37.660Z,57.95
2019-04-01T10:39:37.645Z,57.67
2019-04-01T10:40:37.634Z,57.67
2019-04-01T10:41:37.696Z,57.28
2019-04-01T10:42:37.621Z,57.00
2019-04-01T10:43:37.614Z,57.00
2019-04-01T10:44:37.608Z,56.90
2019-04-01T10:45:37.601Z,57.48
2019-04-01T10:46:40.557Z,57.76
2019-04-01T10:47:37.675Z,57.19
2019-04-01T10:48:37.622Z,56.52
2019-04-01T10:49:37.630Z,56.43
2019-04-01T10:50:37.652Z,56.33
2019-04-01T10:51:37.616Z,56.90
2019-04-01T10:52:37.650Z,57.19
2019-04-01T10:53:37.557Z,56.90
2019-04-01T10:54:37.549Z,56.62
2019-04-01T10:55:37.547Z,56.62
2019-04-01T10:56:37.526Z,57.09
2019-04-01T10:57:37.511Z,57.76
2019-04-01T10:58:37.539Z,56.81
2019-04-01T10:59:37.635Z,56.43
2019-04-01T11:00:37.617Z,56.62
2019-04-01T11:01:37.528Z,56.43
2019-04-01T11:02:37.487Z,56.52
2019-04-01T11:03:37.665Z,56.81
2019-04-01T11:04:37.508Z,56.71
2019-04-01T11:05:37.468Z,56.90
2019-04-01T11:06:37.542Z,56.71
2019-04-01T11:07:37.531Z,56.90
2019-04-01T11:08:37.537Z,56.90
2019-04-01T11:09:38.781Z,56.71
2019-04-01T11:10:37.417Z,56.71
2019-04-01T11:11:37.511Z,56.62
2019-04-01T11:12:37.485Z,56.43
2019-04-01T11:13:37.964Z,56.52
2019-04-01T11:14:37.394Z,57.00
2019-04-01T11:15:37.398Z,57.00
2019-04-01T11:16:37.384Z,57.00
2019-04-01T11:17:37.392Z,56.52
2019-04-01T11:18:37.373Z,56.62
2019-04-01T11:19:37.356Z,57.09
2019-04-01T11:20:37.593Z,56.71
2019-04-01T11:21:37.341Z,56.90
2019-04-01T11:22:37.339Z,56.74
2019-04-01T11:23:37.483Z,57.12
2019-04-01T11:24:37.333Z,57.03
2019-04-01T11:25:37.318Z,56.07
2019-04-01T11:26:37.318Z,55.98
2019-04-01T11:27:37.315Z,55.98
2019-04-01T11:28:37.299Z,56.07
2019-04-01T11:29:37.289Z,55.88
2019-04-01T11:30:37.545Z,56.26
2019-04-01T11:31:37.329Z,56.07
2019-04-01T11:32:37.325Z,55.88
2019-04-01T11:33:37.272Z,55.50
2019-04-01T11:34:37.266Z,55.31
2019-04-01T11:35:37.288Z,55.50
2019-04-01T11:36:37.311Z,55.79
2019-04-01T11:37:37.267Z,55.60
2019-04-01T11:38:37.253Z,55.60
2019-04-01T11:39:37.228Z,55.31
2019-04-01T11:40:38.927Z,54.93
2019-04-01T11:41:37.248Z,55.60
2019-04-01T11:42:40.497Z,55.50
2019-04-01T11:43:37.206Z,54.17
2019-04-01T11:44:37.218Z,54.55
2019-04-01T11:45:37.225Z,54.55
2019-04-01T11:46:37.193Z,54.93
2019-04-01T11:47:37.248Z,54.55
2019-04-01T11:48:37.300Z,54.36
2019-04-01T11:49:37.219Z,54.74
2019-04-01T11:50:37.215Z,54.55
2019-04-01T11:51:40.019Z,54.45
2019-04-01T11:52:38.022Z,54.67
2019-04-01T11:53:37.433Z,55.31
2019-04-01T11:54:37.124Z,55.02
2019-04-01T11:55:37.121Z,55.12
2019-04-01T11:56:37.115Z,55.50
2019-04-01T11:57:37.109Z,55.12
2019-04-01T11:58:38.442Z,55.88
2019-04-01T11:59:37.915Z,56.46
2019-04-01T12:00:37.088Z,56.36
2019-04-01T12:01:37.086Z,56.26
2019-04-01T12:02:37.073Z,56.26
2019-04-01T12:03:37.068Z,56.01
2019-04-01T12:04:37.066Z,56.10
2019-04-01T12:05:37.050Z,55.60
2019-04-01T12:06:37.068Z,55.05
2019-04-01T12:07:37.043Z,55.43
2019-04-01T12:08:37.040Z,55.60
2019-04-01T12:09:37.029Z,55.69
2019-04-01T12:10:37.024Z,56.07
2019-04-01T12:11:37.026Z,56.01
2019-04-01T12:12:37.033Z,55.91
2019-04-01T12:13:37.001Z,55.91
2019-04-01T12:14:37.006Z,55.91
2019-04-01T12:15:36.991Z,55.72
2019-04-01T12:16:37.007Z,55.82
2019-04-01T12:17:36.996Z,56.10
2019-04-01T12:18:36.989Z,55.82
2019-04-01T12:19:36.965Z,55.79
2019-04-01T12:20:37.521Z,56.26
2019-04-01T12:21:41.258Z,57.03
2019-04-01T12:22:36.961Z,56.58
2019-04-01T12:23:36.971Z,56.87
2019-04-01T12:24:36.973Z,56.77
2019-04-01T12:25:36.926Z,56.29
2019-04-01T12:26:36.928Z,56.77
2019-04-01T12:27:36.922Z,56.96
2019-04-01T12:28:36.909Z,56.10
2019-04-01T12:29:36.919Z,56.29
2019-04-01T12:30:36.899Z,56.29
2019-04-01T12:31:36.885Z,55.91
2019-04-01T12:32:36.884Z,55.82
2019-04-01T12:33:36.877Z,55.91
2019-04-01T12:34:36.870Z,56.20
2019-04-01T12:35:36.866Z,56.77
2019-04-01T12:36:36.860Z,56.67
2019-04-01T12:37:36.871Z,56.77
2019-04-01T12:38:36.848Z,56.58
2019-04-01T12:39:36.841Z,56.48
2019-04-01T12:40:36.838Z,56.67
2019-04-01T12:41:36.829Z,56.96
2019-04-01T12:42:36.820Z,56.20
2019-04-01T12:43:36.815Z,56.38
2019-04-01T12:44:36.804Z,56.29
2019-04-01T12:45:36.803Z,56.20
2019-04-01T12:46:36.809Z,56.29
2019-04-01T12:47:36.792Z,56.87
2019-04-01T12:48:36.797Z,56.38
2019-04-01T12:49:36.789Z,56.67
2019-04-01T12:50:36.770Z,57.15
2019-04-01T12:51:36.767Z,57.15
2019-04-01T12:52:36.761Z,57.43